createdAt,value
2017-07-12T00:00:35.841Z,84.90
2017-07-12T00:03:04.197Z,83.80
2017-07-12T00:05:32.498Z,83.60
2017-07-12T00:08:01.675Z,84.40
2017-07-12T00:10:29.946Z,84.30
2017-07-12T00:12:59.191Z,85.00
2017-07-12T00:15:28.672Z,84.00
2017-07-12T00:17:57.049Z,83.90
2017-07-12T00:20:25.368Z,84.50
2017-07-12T00:22:54.401Z,84.60
2017-07-12T00:25:23.027Z,84.60
2017-07-12T00:27:53.162Z,84.70
2017-07-12T00:30:22.352Z,86.60
2017-07-12T00:32:50.730Z,85.60
2017-07-12T00:35:19.112Z,86.10
2017-07-12T00:37:47.791Z,86.80
2017-07-12T00:40:16.075Z,87.60
2017-07-12T00:42:45.396Z,88.30
2017-07-12T00:45:14.275Z,89.00
2017-07-12T00:47:42.671Z,89.60
2017-07-12T00:50:11.888Z,90.00
2017-07-12T00:52:40.193Z,90.40
2017-07-12T00:55:09.338Z,90.90
2017-07-12T00:57:37.747Z,90.90
2017-07-12T01:00:06.432Z,91.10
2017-07-12T01:02:35.590Z,91.30
2017-07-12T01:05:04.389Z,91.60
2017-07-12T01:07:33.038Z,91.80
2017-07-12T01:10:02.234Z,91.90
2017-07-12T01:12:30.586Z,92.10
2017-07-12T01:14:59.191Z,92.30
2017-07-12T01:17:27.478Z,92.80
2017-07-12T01:19:56.059Z,92.50
2017-07-12T01:22:24.341Z,92.60
2017-07-12T01:24:52.794Z,92.70
2017-07-12T01:27:21.412Z,92.60
2017-07-12T01:29:49.796Z,92.70
2017-07-12T01:32:18.696Z,92.80
2017-07-12T01:34:47.080Z,92.90
2017-07-12T01:37:15.437Z,92.90
2017-07-12T01:39:44.055Z,92.80
2017-07-12T01:42:12.337Z,93.00
2017-07-12T01:44:41.527Z,92.90
2017-07-12T01:47:09.954Z,92.90
2017-07-12T01:49:39.148Z,92.80
2017-07-12T01:52:08.641Z,92.80
2017-07-12T01:54:37.735Z,93.20
2017-07-12T01:57:06.307Z,92.90
2017-07-12T01:59:35.019Z,92.90
2017-07-12T02:02:03.412Z,92.90
2017-07-12T02:04:32.098Z,92.90
2017-07-12T02:07:00.412Z,92.80
2017-07-12T02:09:29.831Z,93.00
2017-07-12T02:11:58.366Z,92.90
2017-07-12T02:14:27.254Z,92.90
2017-07-12T02:16:55.947Z,93.00
2017-07-12T02:19:24.351Z,92.90
2017-07-12T02:21:53.593Z,92.90
2017-07-12T02:24:21.952Z,93.00
2017-07-12T02:26:51.028Z,93.00
2017-07-12T02:29:19.589Z,93.00
2017-07-12T02:31:47.974Z,92.90
2017-07-12T02:34:16.369Z,93.00
2017-07-12T02:36:44.745Z,93.20
2017-07-12T02:39:13.667Z,93.20
2017-07-12T02:41:42.346Z,93.30
2017-07-12T02:44:10.613Z,93.30
2017-07-12T02:46:39.035Z,93.40
2017-07-12T02:49:08.245Z,93.70
2017-07-12T02:51:38.121Z,93.80
2017-07-12T02:54:06.700Z,93.90
2017-07-12T02:56:35.255Z,94.00
2017-07-12T02:59:03.536Z,94.20
2017-07-12T03:01:32.472Z,94.20
2017-07-12T03:04:01.278Z,94.30
2017-07-12T03:06:30.366Z,94.20
2017-07-12T03:08:59.494Z,94.20
2017-07-12T03:11:27.983Z,94.30
2017-07-12T03:13:56.355Z,94.20
2017-07-12T03:16:24.719Z,94.20
2017-07-12T03:18:53.311Z,94.10
2017-07-12T03:21:22.341Z,94.10
2017-07-12T03:23:51.493Z,94.20
2017-07-12T03:26:21.336Z,94.20
2017-07-12T03:28:49.618Z,94.30
2017-07-12T03:31:18.204Z,94.30
2017-07-12T03:33:47.071Z,94.20
2017-07-12T03:36:15.346Z,94.10
2017-07-12T03:38:43.657Z,94.20
2017-07-12T03:41:12.049Z,93.90
2017-07-12T03:43:40.442Z,93.80
2017-07-12T03:46:09.479Z,93.80
2017-07-12T03:48:39.140Z,93.50
2017-07-12T03:51:08.108Z,93.50
2017-07-12T03:53:36.380Z,93.50
2017-07-12T03:56:04.713Z,93.40
2017-07-12T03:58:33.096Z,93.30
2017-07-12T04:01:01.966Z,93.20
2017-07-12T04:03:30.260Z,93.20
2017-07-12T04:05:58.676Z,92.90
2017-07-12T04:08:27.761Z,93.00
2017-07-12T04:10:57.133Z,93.00
2017-07-12T04:13:25.709Z,92.80
2017-07-12T04:15:54.002Z,92.80
2017-07-12T04:18:22.380Z,92.20
2017-07-12T04:20:50.989Z,92.30
2017-07-12T04:23:19.290Z,92.10
2017-07-12T04:25:48.588Z,91.90
2017-07-12T04:28:17.348Z,92.20
2017-07-12T04:30:45.631Z,91.60
2017-07-12T04:33:13.936Z,91.40
2017-07-12T04:35:42.270Z,91.30
2017-07-12T04:38:11.603Z,90.90
2017-07-12T04:40:40.607Z,90.90
2017-07-12T04:43:08.901Z,90.70
2017-07-12T04:45:37.379Z,90.30
2017-07-12T04:48:05.764Z,90.30
2017-07-12T04:50:34.378Z,89.50
2017-07-12T04:53:03.550Z,89.10
2017-07-12T04:55:31.845Z,88.10
2017-07-12T04:58:00.146Z,87.40
2017-07-12T05:00:29.332Z,86.70
2017-07-12T05:02:58.023Z,86.40
2017-07-12T05:05:26.370Z,85.60
2017-07-12T05:07:55.531Z,85.20
2017-07-12T05:10:24.703Z,82.10
2017-07-12T05:12:52.984Z,82.10
2017-07-12T05:15:22.168Z,81.70
2017-07-12T05:17:50.456Z,82.50
2017-07-12T05:20:18.739Z,83.60
2017-07-12T05:22:47.117Z,83.10
2017-07-12T05:25:15.484Z,83.00
2017-07-12T05:27:44.100Z,83.00
2017-07-12T05:30:12.397Z,81.70
2017-07-12T05:32:40.998Z,80.40
2017-07-12T05:35:09.354Z,80.60
2017-07-12T05:37:37.667Z,80.70
2017-07-12T05:40:07.047Z,80.10
2017-07-12T05:42:37.075Z,80.10
2017-07-12T05:45:05.359Z,80.00
2017-07-12T05:47:34.348Z,78.30
2017-07-12T05:50:02.662Z,75.10
2017-07-12T05:52:32.099Z,71.80
2017-07-12T05:55:01.204Z,71.70
2017-07-12T05:57:29.502Z,71.20
2017-07-12T05:59:58.315Z,72.30
2017-07-12T06:02:28.006Z,73.00
2017-07-12T06:04:56.619Z,71.50
2017-07-12T06:07:26.023Z,70.50
2017-07-12T06:09:54.345Z,70.20
2017-07-12T06:12:23.416Z,68.60
2017-07-12T06:14:52.139Z,68.50
2017-07-12T06:17:20.726Z,69.40
2017-07-12T06:19:49.914Z,69.60
2017-07-12T06:22:19.289Z,70.40
2017-07-12T06:24:47.695Z,70.40
2017-07-12T06:27:16.691Z,69.50
2017-07-12T06:29:45.373Z,70.20
2017-07-12T06:32:13.681Z,71.00
2017-07-12T06:34:42.755Z,72.50
2017-07-12T06:37:11.798Z,72.40
2017-07-12T06:39:40.125Z,72.70
2017-07-12T06:42:08.816Z,72.80
2017-07-12T06:44:37.184Z,72.50
2017-07-12T06:47:05.577Z,73.80
2017-07-12T06:49:34.277Z,74.60
2017-07-12T06:52:02.552Z,75.90
2017-07-12T06:54:30.940Z,75.30
2017-07-12T06:56:59.305Z,75.60
2017-07-12T06:59:28.048Z,76.30
2017-07-12T07:01:57.427Z,76.00
2017-07-12T07:04:26.725Z,76.00
2017-07-12T07:06:55.033Z,75.70
2017-07-12T07:09:23.351Z,76.20
2017-07-12T07:11:51.672Z,75.70
2017-07-12T07:14:20.348Z,76.00
2017-07-12T07:16:48.728Z,75.00
2017-07-12T07:19:17.026Z,75.70
2017-07-12T07:21:45.420Z,75.40
2017-07-12T07:24:13.775Z,74.10
2017-07-12T07:26:42.378Z,73.90
2017-07-12T07:29:10.693Z,72.40
2017-07-12T07:31:39.047Z,72.50
2017-07-12T07:34:07.343Z,73.00
2017-07-12T07:36:35.825Z,71.80
2017-07-12T07:39:04.395Z,71.50
2017-07-12T07:41:33.120Z,72.40
2017-07-12T07:44:01.895Z,71.70
2017-07-12T07:46:30.929Z,71.30
2017-07-12T07:48:59.224Z,70.40
2017-07-12T07:51:27.529Z,69.30
2017-07-12T07:53:57.055Z,68.70
2017-07-12T07:56:25.345Z,67.00
2017-07-12T07:58:53.991Z,66.10
2017-07-12T08:01:22.617Z,65.60
2017-07-12T08:03:50.904Z,64.00
2017-07-12T08:06:19.214Z,62.90
2017-07-12T08:08:48.886Z,62.30
2017-07-12T08:11:17.154Z,62.10
2017-07-12T08:13:45.478Z,61.90
2017-07-12T08:16:14.169Z,62.80
2017-07-12T08:25:30.541Z,63.60
2017-07-12T08:27:59.660Z,64.00
2017-07-12T08:30:27.942Z,62.40
2017-07-12T08:32:57.316Z,63.50
2017-07-12T08:35:25.696Z,63.50
2017-07-12T08:37:54.693Z,62.30
2017-07-12T08:40:23.595Z,62.60
2017-07-12T08:42:51.904Z,63.30
2017-07-12T08:45:20.181Z,61.30
2017-07-12T08:47:48.854Z,59.30
2017-07-12T08:50:17.142Z,58.50
2017-07-12T08:52:45.958Z,59.20
2017-07-12T08:55:14.634Z,59.50
2017-07-12T08:57:42.923Z,59.60
2017-07-12T09:00:11.326Z,59.50
2017-07-12T09:02:40.639Z,59.00
2017-07-12T09:05:09.172Z,59.00
2017-07-12T09:07:37.455Z,57.60
2017-07-12T09:10:06.129Z,57.80
2017-07-12T09:12:34.396Z,57.30
2017-07-12T09:15:02.713Z,58.30
2017-07-12T09:17:31.337Z,56.60
2017-07-12T09:19:59.639Z,56.40
2017-07-12T09:22:27.920Z,55.20
2017-07-12T09:34:50.834Z,56.30
2017-07-12T09:37:19.878Z,57.00
2017-07-12T09:39:49.361Z,56.50
2017-07-12T09:42:18.397Z,56.40
2017-07-12T09:44:46.704Z,56.40
2017-07-12T09:47:15.097Z,58.00
2017-07-12T09:49:43.846Z,65.70
2017-07-12T09:52:12.132Z,69.10
2017-07-12T09:54:40.436Z,69.10
2017-07-12T09:57:09.959Z,95.10
2017-07-12T09:59:38.270Z,95.00
2017-07-12T10:02:07.693Z,95.30
2017-07-12T10:04:35.978Z,95.10
2017-07-12T10:07:05.052Z,80.50
2017-07-12T10:09:33.708Z,82.40
2017-07-12T10:12:01.998Z,81.20
2017-07-12T10:14:31.175Z,79.00
2017-07-12T10:16:59.915Z,80.50
2017-07-12T10:19:28.989Z,79.70
2017-07-12T10:21:57.304Z,79.60
2017-07-12T10:24:26.637Z,79.00
2017-07-12T10:26:55.094Z,79.00
2017-07-12T10:29:24.148Z,78.90
2017-07-12T10:31:52.848Z,79.30
2017-07-12T10:34:21.153Z,77.80
2017-07-12T10:36:50.218Z,78.20
2017-07-12T10:39:18.579Z,77.80
2017-07-12T10:41:46.911Z,81.10
2017-07-12T10:44:15.468Z,80.80
2017-07-12T10:46:43.804Z,83.10
2017-07-12T10:49:13.220Z,81.20
2017-07-12T10:51:41.505Z,81.00
2017-07-12T10:54:09.851Z,82.80
2017-07-12T10:56:38.443Z,83.80
2017-07-12T10:59:07.529Z,82.30
2017-07-12T11:01:35.891Z,82.30
2017-07-12T11:04:04.504Z,83.60
2017-07-12T11:06:33.604Z,82.30
2017-07-12T11:09:02.751Z,82.30
2017-07-12T11:11:31.290Z,80.30
2017-07-12T11:13:59.803Z,75.70
2017-07-12T11:16:29.059Z,80.60
2017-07-12T11:18:58.123Z,80.60
2017-07-12T11:21:26.427Z,83.10
2017-07-12T11:23:54.745Z,81.90
2017-07-12T11:26:23.437Z,81.40
2017-07-12T11:28:52.548Z,85.10
2017-07-12T11:31:21.292Z,84.30
2017-07-12T11:33:49.892Z,83.60
2017-07-12T11:36:18.575Z,84.10
2017-07-12T11:38:46.868Z,85.00
2017-07-12T11:41:15.582Z,87.80
2017-07-12T11:43:43.850Z,90.20
2017-07-12T11:46:12.129Z,88.30
2017-07-12T11:48:41.177Z,89.10
2017-07-12T11:51:09.462Z,90.40
2017-07-12T11:53:37.736Z,91.00
2017-07-12T11:56:06.381Z,90.60
2017-07-12T11:58:34.715Z,91.30
2017-07-12T12:01:05.326Z,90.60
2017-07-12T12:03:34.381Z,90.80
2017-07-12T12:06:02.677Z,90.20
2017-07-12T12:08:31.195Z,89.10
2017-07-12T12:11:00.581Z,91.30
2017-07-12T12:13:28.898Z,91.30
2017-07-12T12:15:57.269Z,90.60
2017-07-12T12:18:26.017Z,91.50
2017-07-12T12:20:54.336Z,91.30
2017-07-12T12:23:22.704Z,91.30
2017-07-12T12:25:51.386Z,92.10
2017-07-12T12:28:19.698Z,91.80
2017-07-12T12:30:48.790Z,99.90
2017-07-12T12:33:17.390Z,98.30
2017-07-12T12:35:46.473Z,99.10
2017-07-12T12:38:14.853Z,98.70
2017-07-12T12:40:43.226Z,99.30
2017-07-12T12:43:11.551Z,99.40
2017-07-12T12:45:41.057Z,93.60
2017-07-12T12:48:09.428Z,93.60
2017-07-12T12:50:38.923Z,97.90
2017-07-12T12:53:07.243Z,97.20
2017-07-12T12:55:35.580Z,97.30
2017-07-12T12:58:04.691Z,96.20
2017-07-12T13:00:33.245Z,95.00
2017-07-12T13:03:01.775Z,92.80
2017-07-12T13:05:35.892Z,93.30
2017-07-12T13:08:05.000Z,97.90
2017-07-12T13:10:33.659Z,96.50
2017-07-12T13:13:01.959Z,97.10
2017-07-12T13:15:31.146Z,96.50
2017-07-12T13:17:59.447Z,96.70
2017-07-12T13:20:28.031Z,96.40
2017-07-12T13:22:57.471Z,96.80
2017-07-12T13:25:25.768Z,96.50
2017-07-12T13:27:54.411Z,96.30
2017-07-12T13:30:22.688Z,95.40
2017-07-12T13:32:51.759Z,96.00
2017-07-12T13:35:20.365Z,96.00
2017-07-12T13:37:48.668Z,96.00
2017-07-12T13:40:18.169Z,95.80
2017-07-12T13:42:47.627Z,95.30
2017-07-12T13:45:16.083Z,95.30
2017-07-12T13:47:44.468Z,95.50
2017-07-12T13:50:13.811Z,94.50
2017-07-12T13:52:42.134Z,94.50
2017-07-12T13:55:10.746Z,95.00
2017-07-12T13:57:40.617Z,94.90
2017-07-12T14:00:08.924Z,94.90
2017-07-12T14:02:38.104Z,95.90
2017-07-12T14:05:06.498Z,95.80
2017-07-12T14:07:35.890Z,95.50
2017-07-12T14:10:05.602Z,95.50
2017-07-12T14:12:33.895Z,94.80
2017-07-12T14:15:02.274Z,94.00
2017-07-12T14:17:31.290Z,94.40
2017-07-12T14:20:00.679Z,93.80
2017-07-12T14:22:28.965Z,93.60
2017-07-12T14:24:57.774Z,94.80
2017-07-12T14:27:26.943Z,96.30
2017-07-12T14:29:55.252Z,95.60
2017-07-12T14:32:24.655Z,97.30
2017-07-12T14:34:53.117Z,95.40
2017-07-12T14:37:22.354Z,95.70
2017-07-12T14:39:51.435Z,95.40
2017-07-12T14:42:21.140Z,99.90
2017-07-12T14:44:49.525Z,99.90
2017-07-12T14:47:18.339Z,99.90
2017-07-12T14:49:47.077Z,99.90
2017-07-12T14:52:15.839Z,99.90
2017-07-12T14:57:14.187Z,95.30
2017-07-12T14:59:43.711Z,95.70
2017-07-12T15:02:12.003Z,95.90
2017-07-12T15:04:41.500Z,99.90
2017-07-12T15:07:09.819Z,99.90
2017-07-12T15:14:38.399Z,96.90
2017-07-12T15:17:06.706Z,97.20
2017-07-12T15:19:35.039Z,97.00
2017-07-12T15:24:34.019Z,96.80
2017-07-12T15:27:02.347Z,97.00
2017-07-12T15:29:30.659Z,97.30
2017-07-12T15:36:58.392Z,99.90
2017-07-12T15:39:26.679Z,99.40
2017-07-12T15:41:55.964Z,99.90
2017-07-12T15:44:24.347Z,99.90
2017-07-12T15:46:52.910Z,99.90
2017-07-12T15:49:21.345Z,99.90
2017-07-12T15:51:50.414Z,99.90
2017-07-12T15:54:20.316Z,99.90
2017-07-12T15:56:48.671Z,99.90
2017-07-12T15:59:18.524Z,99.90
2017-07-12T16:01:46.843Z,99.90
2017-07-12T16:04:15.113Z,98.30
2017-07-12T16:06:43.472Z,98.20
2017-07-12T16:09:11.766Z,98.20
2017-07-12T16:11:41.585Z,97.70
2017-07-12T16:14:10.198Z,98.00
2017-07-12T16:16:39.255Z,98.90
2017-07-12T16:19:08.157Z,98.90
2017-07-12T16:21:36.548Z,98.90
2017-07-12T16:24:05.137Z,98.90
2017-07-12T16:26:33.632Z,99.00
2017-07-12T16:29:02.269Z,99.30
2017-07-12T16:31:30.529Z,99.60
2017-07-12T16:33:58.886Z,99.80
2017-07-12T16:36:27.469Z,99.80
2017-07-12T16:38:56.135Z,99.90
2017-07-12T16:41:24.844Z,99.90
2017-07-12T16:43:53.102Z,99.90
2017-07-12T16:46:21.385Z,99.80
2017-07-12T16:48:49.689Z,99.90
2017-07-12T16:51:17.957Z,99.70
2017-07-12T16:53:46.547Z,99.90
2017-07-12T16:56:14.823Z,99.90
2017-07-12T16:58:43.133Z,99.90
2017-07-12T17:01:11.495Z,99.90
2017-07-12T17:03:40.916Z,99.50
2017-07-12T17:06:10.311Z,99.30
2017-07-12T17:08:39.213Z,99.90
2017-07-12T17:11:07.524Z,99.90
2017-07-12T17:13:37.350Z,99.90
2017-07-12T17:16:06.393Z,99.90
2017-07-12T17:18:34.759Z,99.90
2017-07-12T17:21:03.050Z,99.90
2017-07-12T17:23:31.657Z,99.90
2017-07-12T17:26:00.355Z,99.90
2017-07-12T17:28:28.668Z,99.90
2017-07-12T17:30:58.346Z,99.90
2017-07-12T17:33:26.718Z,99.90
2017-07-12T17:35:55.033Z,99.90
2017-07-12T17:38:23.311Z,99.90
2017-07-12T17:40:51.669Z,99.90
2017-07-12T17:43:20.048Z,99.90
2017-07-12T17:45:48.649Z,99.90
2017-07-12T17:48:16.919Z,99.90
2017-07-12T17:50:45.515Z,99.90
2017-07-12T17:53:13.804Z,99.90
2017-07-12T17:55:42.192Z,99.90
2017-07-12T17:58:10.735Z,99.90
2017-07-12T18:00:39.040Z,99.90
2017-07-12T18:03:08.156Z,99.90
2017-07-12T18:05:36.458Z,99.90
2017-07-12T18:08:04.807Z,99.90
2017-07-12T18:10:33.183Z,99.90
2017-07-12T18:13:01.490Z,99.90
2017-07-12T18:15:30.065Z,99.90
2017-07-12T18:17:59.180Z,99.90
2017-07-12T18:20:27.558Z,99.90
2017-07-12T18:22:55.906Z,99.90
2017-07-12T18:25:24.256Z,99.90
2017-07-12T18:27:53.694Z,99.90
2017-07-12T18:30:22.018Z,99.90
2017-07-12T18:32:50.581Z,99.90
2017-07-12T18:35:19.025Z,99.90
2017-07-12T18:37:48.772Z,99.90
2017-07-12T18:40:17.072Z,99.90
2017-07-12T18:42:46.067Z,99.90
2017-07-12T18:45:14.688Z,99.90
2017-07-12T18:47:43.092Z,99.90
2017-07-12T18:50:11.349Z,99.90
2017-07-12T18:52:41.102Z,99.90
2017-07-12T18:55:10.833Z,99.90
2017-07-12T18:57:39.849Z,99.90
2017-07-12T19:00:08.129Z,99.90
2017-07-12T19:02:36.946Z,99.90
2017-07-12T19:05:05.333Z,99.90
2017-07-12T19:07:34.559Z,99.90
2017-07-12T19:10:03.687Z,99.90
2017-07-12T19:12:34.314Z,99.90
2017-07-12T19:15:02.595Z,99.90
2017-07-12T19:17:32.221Z,99.90
2017-07-12T19:20:00.944Z,99.90
2017-07-12T19:22:29.929Z,99.90
2017-07-12T19:24:58.203Z,99.90
2017-07-12T19:27:27.440Z,99.90
2017-07-12T19:29:56.202Z,99.90
2017-07-12T19:32:24.490Z,99.90
2017-07-12T19:37:22.415Z,99.90
2017-07-12T19:39:51.015Z,99.90
2017-07-12T19:42:20.138Z,99.90
2017-07-12T19:47:18.054Z,99.90
2017-07-12T19:49:46.344Z,99.90
2017-07-12T19:52:14.920Z,99.90
2017-07-12T19:54:43.215Z,99.90
2017-07-12T19:57:11.492Z,99.90
2017-07-12T19:59:40.960Z,99.90
2017-07-12T20:02:10.062Z,99.90
2017-07-12T20:04:39.428Z,99.90
2017-07-12T20:07:07.805Z,99.90
2017-07-12T20:09:36.102Z,99.90
2017-07-12T20:12:04.425Z,99.90
2017-07-12T20:14:32.816Z,99.90
2017-07-12T20:17:01.397Z,99.90
2017-07-12T20:19:29.741Z,99.90
2017-07-12T20:21:58.515Z,99.90
2017-07-12T20:24:27.393Z,99.90
2017-07-12T20:26:55.800Z,99.90
2017-07-12T20:29:24.389Z,99.90
2017-07-12T20:31:52.852Z,99.90
2017-07-12T20:34:21.249Z,99.90
2017-07-12T20:36:49.639Z,99.90
2017-07-12T20:39:18.241Z,99.90
2017-07-12T20:41:46.907Z,99.90
2017-07-12T20:44:15.868Z,99.90
2017-07-12T20:46:44.324Z,99.90
2017-07-12T20:49:12.629Z,99.90
2017-07-12T20:51:41.236Z,99.90
2017-07-12T20:54:09.749Z,99.90
2017-07-12T20:56:38.667Z,99.90
2017-07-12T20:59:07.366Z,99.90
2017-07-12T21:01:37.082Z,99.90
2017-07-12T21:04:06.508Z,99.90
2017-07-12T21:06:35.951Z,99.90
2017-07-12T21:09:05.399Z,99.90
2017-07-12T21:11:33.786Z,99.90
2017-07-12T21:26:31.011Z,99.90
2017-07-12T21:28:59.401Z,99.90
2017-07-12T21:31:27.738Z,99.90
2017-07-12T21:36:26.735Z,99.90
2017-07-12T21:38:56.091Z,99.90
2017-07-12T21:41:25.546Z,99.90
2017-07-12T21:43:54.639Z,99.70
2017-07-12T21:46:23.840Z,99.90
2017-07-12T21:48:52.896Z,99.80
2017-07-12T21:51:21.503Z,99.90
2017-07-12T21:54:07.604Z,99.90
2017-07-12T21:57:00.261Z,99.90
2017-07-12T21:59:52.245Z,99.90
2017-07-12T22:02:44.589Z,99.90
2017-07-12T22:05:36.751Z,99.90
2017-07-12T22:08:29.336Z,99.90
2017-07-12T22:11:21.439Z,99.90
2017-07-12T22:14:13.914Z,99.90
2017-07-12T22:17:05.913Z,99.90
2017-07-12T22:19:58.166Z,99.90
2017-07-12T22:22:50.957Z,99.90
2017-07-12T22:25:43.405Z,99.90
2017-07-12T22:28:35.345Z,99.90
2017-07-12T22:31:27.766Z,99.90
2017-07-12T22:34:19.854Z,99.90
2017-07-12T22:37:04.837Z,99.90
2017-07-12T22:39:38.846Z,99.90
2017-07-12T22:42:13.000Z,99.90
2017-07-12T22:44:41.292Z,99.90
2017-07-12T22:47:10.381Z,99.90
2017-07-12T22:49:38.771Z,99.90
2017-07-12T22:52:07.675Z,99.90
2017-07-12T22:54:36.669Z,99.90
2017-07-12T22:57:05.738Z,99.90
2017-07-12T22:59:34.155Z,99.90
2017-07-12T23:02:02.466Z,99.90
2017-07-12T23:04:30.875Z,99.90
2017-07-12T23:07:00.310Z,99.90
2017-07-12T23:09:29.725Z,99.90
2017-07-12T23:11:58.413Z,99.90
2017-07-12T23:14:26.719Z,99.90
2017-07-12T23:16:55.796Z,99.90
2017-07-12T23:19:24.088Z,99.90
2017-07-12T23:21:52.358Z,99.90
2017-07-12T23:24:20.755Z,99.90
2017-07-12T23:26:49.333Z,99.90
2017-07-12T23:29:18.825Z,99.50
2017-07-12T23:31:48.029Z,99.70
2017-07-12T23:34:16.365Z,99.60
2017-07-12T23:36:45.399Z,99.30
2017-07-12T23:39:14.115Z,99.40
2017-07-12T23:41:42.707Z,99.60
2017-07-12T23:44:11.041Z,99.20
2017-07-12T23:46:39.357Z,99.10
2017-07-12T23:49:07.744Z,98.30
2017-07-12T23:51:36.347Z,98.50
2017-07-12T23:54:05.052Z,98.60
2017-07-12T23:56:33.707Z,98.90
2017-07-12T23:59:02.837Z,98.60
